sensor_id;sensor_type;location;lat;lon;timestamp;temperature;humidity
40660;DHT22;26753;45.544;9.232;2024-02-23T00:01:45;11.30;99.90
40660;DHT22;26753;45.544;9.232;2024-02-23T00:04:11;12.00;99.90
40660;DHT22;26753;45.544;9.232;2024-02-23T00:06:37;11.10;99.90
40660;DHT22;26753;45.544;9.232;2024-02-23T00:09:03;10.00;99.90
40660;DHT22;26753;45.544;9.232;2024-02-23T00:11:29;11.40;99.90
40660;DHT22;26753;45.544;9.232;2024-02-23T00:13:54;10.10;99.90
40660;DHT22;26753;45.544;9.232;2024-02-23T00:16:20;11.60;99.90
40660;DHT22;26753;45.544;9.232;2024-02-23T00:18:46;10.90;99.90
40660;DHT22;26753;45.544;9.232;2024-02-23T00:21:14;13.30;99.90
40660;DHT22;26753;45.544;9.232;2024-02-23T00:23:40;13.00;99.90
40660;DHT22;26753;45.544;9.232;2024-02-23T00:26:06;11.50;99.90
40660;DHT22;26753;45.544;9.232;2024-02-23T00:28:34;12.10;99.90
40660;DHT22;26753;45.544;9.232;2024-02-23T00:31:00;11.90;99.90
40660;DHT22;26753;45.544;9.232;2024-02-23T00:33:26;12.90;99.90
40660;DHT22;26753;45.544;9.232;2024-02-23T00:35:52;10.90;99.90
40660;DHT22;26753;45.544;9.232;2024-02-23T00:38:18;10.40;99.90
40660;DHT22;26753;45.544;9.232;2024-02-23T00:40:47;11.10;99.90
40660;DHT22;26753;45.544;9.232;2024-02-23T00:43:13;11.20;99.90
40660;DHT22;26753;45.544;9.232;2024-02-23T00:45:38;11.00;99.90
40660;DHT22;26753;45.544;9.232;2024-02-23T00:48:04;11.80;99.90
40660;DHT22;26753;45.544;9.232;2024-02-23T00:50:35;11.90;99.90
40660;DHT22;26753;45.544;9.232;2024-02-23T00:53:00;12.40;99.90
40660;DHT22;26753;45.544;9.232;2024-02-23T00:55:26;12.10;99.90
40660;DHT22;26753;45.544;9.232;2024-02-23T00:57:52;10.50;99.90
40660;DHT22;26753;45.544;9.232;2024-02-23T01:00:18;9.90;99.90
40660;DHT22;26753;45.544;9.232;2024-02-23T01:02:44;10.70;99.90
40660;DHT22;26753;45.544;9.232;2024-02-23T01:05:13;10.00;99.90
40660;DHT22;26753;45.544;9.232;2024-02-23T01:07:39;10.80;99.90
40660;DHT22;26753;45.544;9.232;2024-02-23T01:10:05;12.20;99.90
40660;DHT22;26753;45.544;9.232;2024-02-23T01:12:31;10.20;99.90
40660;DHT22;26753;45.544;9.232;2024-02-23T01:14:57;10.50;99.90
40660;DHT22;26753;45.544;9.232;2024-02-23T01:17:34;11.40;99.90
40660;DHT22;26753;45.544;9.232;2024-02-23T01:20:00;10.60;99.90
40660;DHT22;26753;45.544;9.232;2024-02-23T01:22:26;12.30;99.90
40660;DHT22;26753;45.544;9.232;2024-02-23T01:24:51;9.80;99.90
40660;DHT22;26753;45.544;9.232;2024-02-23T01:27:17;10.60;99.90
40660;DHT22;26753;45.544;9.232;2024-02-23T01:29:47;13.70;99.90
40660;DHT22;26753;45.544;9.232;2024-02-23T01:32:12;10.90;99.90
40660;DHT22;26753;45.544;9.232;2024-02-23T01:34:50;10.60;99.90
40660;DHT22;26753;45.544;9.232;2024-02-23T01:37:19;10.90;99.90
40660;DHT22;26753;45.544;9.232;2024-02-23T01:39:51;10.20;99.90
40660;DHT22;26753;45.544;9.232;2024-02-23T01:42:17;11.60;99.90
40660;DHT22;26753;45.544;9.232;2024-02-23T01:44:53;11.20;99.90
40660;DHT22;26753;45.544;9.232;2024-02-23T01:47:21;10.30;99.90
40660;DHT22;26753;45.544;9.232;2024-02-23T01:49:47;10.80;99.90
40660;DHT22;26753;45.544;9.232;2024-02-23T01:52:14;11.80;99.90
40660;DHT22;26753;45.544;9.232;2024-02-23T01:54:41;10.40;99.90
40660;DHT22;26753;45.544;9.232;2024-02-23T01:57:08;11.90;99.90
40660;DHT22;26753;45.544;9.232;2024-02-23T01:59:35;11.10;99.90
40660;DHT22;26753;45.544;9.232;2024-02-23T02:02:03;9.50;99.90
40660;DHT22;26753;45.544;9.232;2024-02-23T02:04:29;11.00;99.90
40660;DHT22;26753;45.544;9.232;2024-02-23T02:06:55;9.90;99.90
40660;DHT22;26753;45.544;9.232;2024-02-23T02:09:21;9.60;99.90
40660;DHT22;26753;45.544;9.232;2024-02-23T02:11:47;11.80;99.90
40660;DHT22;26753;45.544;9.232;2024-02-23T02:14:17;9.70;99.90
40660;DHT22;26753;45.544;9.232;2024-02-23T02:16:43;10.80;99.90
40660;DHT22;26753;45.544;9.232;2024-02-23T02:19:12;10.90;99.90
40660;DHT22;26753;45.544;9.232;2024-02-23T02:21:39;11.60;99.90
40660;DHT22;26753;45.544;9.232;2024-02-23T02:24:05;9.60;99.90
40660;DHT22;26753;45.544;9.232;2024-02-23T02:26:37;11.10;99.90
40660;DHT22;26753;45.544;9.232;2024-02-23T02:29:05;10.10;99.90
40660;DHT22;26753;45.544;9.232;2024-02-23T02:31:31;11.40;99.90
40660;DHT22;26753;45.544;9.232;2024-02-23T02:34:03;10.20;99.90
40660;DHT22;26753;45.544;9.232;2024-02-23T02:36:29;10.70;99.90
40660;DHT22;26753;45.544;9.232;2024-02-23T02:39:01;11.70;99.90
40660;DHT22;26753;45.544;9.232;2024-02-23T02:41:53;10.40;99.90
40660;DHT22;26753;45.544;9.232;2024-02-23T02:44:19;9.90;99.90
40660;DHT22;26753;45.544;9.232;2024-02-23T02:46:45;11.80;99.90
40660;DHT22;26753;45.544;9.232;2024-02-23T02:49:16;12.10;99.90
40660;DHT22;26753;45.544;9.232;2024-02-23T02:51:42;11.60;99.90
40660;DHT22;26753;45.544;9.232;2024-02-23T02:54:11;12.20;99.90
40660;DHT22;26753;45.544;9.232;2024-02-23T02:56:46;10.10;99.90
40660;DHT22;26753;45.544;9.232;2024-02-23T02:59:13;10.60;99.90
40660;DHT22;26753;45.544;9.232;2024-02-23T03:01:44;9.70;99.90
40660;DHT22;26753;45.544;9.232;2024-02-23T03:04:12;10.30;99.90
40660;DHT22;26753;45.544;9.232;2024-02-23T03:06:50;10.70;99.90
40660;DHT22;26753;45.544;9.232;2024-02-23T03:09:16;11.70;99.90
40660;DHT22;26753;45.544;9.232;2024-02-23T03:11:42;10.80;99.90
40660;DHT22;26753;45.544;9.232;2024-02-23T03:14:08;10.80;99.90
40660;DHT22;26753;45.544;9.232;2024-02-23T03:16:35;11.30;99.90
40660;DHT22;26753;45.544;9.232;2024-02-23T03:19:03;10.70;99.90
40660;DHT22;26753;45.544;9.232;2024-02-23T03:21:29;10.40;99.90
40660;DHT22;26753;45.544;9.232;2024-02-23T03:23:55;10.70;99.90
40660;DHT22;26753;45.544;9.232;2024-02-23T03:26:24;11.00;99.90
40660;DHT22;26753;45.544;9.232;2024-02-23T03:28:50;11.80;99.90
40660;DHT22;26753;45.544;9.232;2024-02-23T03:31:16;12.30;99.90
40660;DHT22;26753;45.544;9.232;2024-02-23T03:33:42;11.20;99.90
40660;DHT22;26753;45.544;9.232;2024-02-23T03:36:08;11.00;99.90
40660;DHT22;26753;45.544;9.232;2024-02-23T03:38:36;9.50;99.90
40660;DHT22;26753;45.544;9.232;2024-02-23T03:41:08;11.20;99.90
40660;DHT22;26753;45.544;9.232;2024-02-23T03:43:37;10.30;99.90
40660;DHT22;26753;45.544;9.232;2024-02-23T03:46:09;11.00;99.90
40660;DHT22;26753;45.544;9.232;2024-02-23T03:48:37;10.90;99.90
40660;DHT22;26753;45.544;9.232;2024-02-23T03:51:04;12.00;99.90
40660;DHT22;26753;45.544;9.232;2024-02-23T03:53:30;11.40;99.90
40660;DHT22;26753;45.544;9.232;2024-02-23T03:55:59;9.60;99.90
40660;DHT22;26753;45.544;9.232;2024-02-23T03:58:25;9.00;99.90
40660;DHT22;26753;45.544;9.232;2024-02-23T04:00:51;10.20;99.90
40660;DHT22;26753;45.544;9.232;2024-02-23T04:03:40;10.70;99.90
40660;DHT22;26753;45.544;9.232;2024-02-23T04:06:10;11.00;99.90
40660;DHT22;26753;45.544;9.232;2024-02-23T04:08:36;10.10;99.90
40660;DHT22;26753;45.544;9.232;2024-02-23T04:11:05;10.50;99.90
40660;DHT22;26753;45.544;9.232;2024-02-23T04:13:31;10.30;99.90
40660;DHT22;26753;45.544;9.232;2024-02-23T04:15:57;10.60;99.90
40660;DHT22;26753;45.544;9.232;2024-02-23T04:18:23;10.10;99.90
40660;DHT22;26753;45.544;9.232;2024-02-23T04:20:49;11.80;99.90
40660;DHT22;26753;45.544;9.232;2024-02-23T04:23:15;10.40;99.90
40660;DHT22;26753;45.544;9.232;2024-02-23T04:25:41;9.40;99.90
40660;DHT22;26753;45.544;9.232;2024-02-23T04:28:10;11.70;99.90
40660;DHT22;26753;45.544;9.232;2024-02-23T04:30:38;11.70;99.90
40660;DHT22;26753;45.544;9.232;2024-02-23T04:33:04;10.70;99.90
40660;DHT22;26753;45.544;9.232;2024-02-23T04:35:30;11.30;99.90
40660;DHT22;26753;45.544;9.232;2024-02-23T04:37:55;10.60;99.90
40660;DHT22;26753;45.544;9.232;2024-02-23T04:40:24;10.80;99.90
40660;DHT22;26753;45.544;9.232;2024-02-23T04:42:50;11.40;99.90
40660;DHT22;26753;45.544;9.232;2024-02-23T04:45:27;11.70;99.90
40660;DHT22;26753;45.544;9.232;2024-02-23T04:47:53;11.60;99.90
40660;DHT22;26753;45.544;9.232;2024-02-23T04:50:19;11.10;99.90
40660;DHT22;26753;45.544;9.232;2024-02-23T04:52:45;10.70;99.90
40660;DHT22;26753;45.544;9.232;2024-02-23T04:55:13;12.40;99.90
40660;DHT22;26753;45.544;9.232;2024-02-23T04:57:39;12.40;99.90
40660;DHT22;26753;45.544;9.232;2024-02-23T05:00:14;10.40;99.90
40660;DHT22;26753;45.544;9.232;2024-02-23T05:02:43;11.20;99.90
40660;DHT22;26753;45.544;9.232;2024-02-23T05:05:09;11.80;99.90
40660;DHT22;26753;45.544;9.232;2024-02-23T05:07:34;11.50;99.90
40660;DHT22;26753;45.544;9.232;2024-02-23T05:10:00;10.20;99.90
40660;DHT22;26753;45.544;9.232;2024-02-23T05:12:29;11.50;99.90
40660;DHT22;26753;45.544;9.232;2024-02-23T05:14:54;12.30;99.90
40660;DHT22;26753;45.544;9.232;2024-02-23T05:17:20;10.90;99.90
40660;DHT22;26753;45.544;9.232;2024-02-23T05:19:46;12.10;99.90
40660;DHT22;26753;45.544;9.232;2024-02-23T05:22:12;12.20;99.90
40660;DHT22;26753;45.544;9.232;2024-02-23T05:24:38;11.40;99.90
40660;DHT22;26753;45.544;9.232;2024-02-23T05:27:04;10.80;99.90
40660;DHT22;26753;45.544;9.232;2024-02-23T05:29:30;11.30;99.90
40660;DHT22;26753;45.544;9.232;2024-02-23T05:31:56;11.70;99.90
40660;DHT22;26753;45.544;9.232;2024-02-23T05:34:22;11.30;99.90
40660;DHT22;26753;45.544;9.232;2024-02-23T05:36:48;11.50;99.90
40660;DHT22;26753;45.544;9.232;2024-02-23T05:39:16;10.60;99.90
40660;DHT22;26753;45.544;9.232;2024-02-23T05:41:43;9.80;99.90
40660;DHT22;26753;45.544;9.232;2024-02-23T05:44:09;10.80;99.90
40660;DHT22;26753;45.544;9.232;2024-02-23T05:46:35;10.50;99.90
40660;DHT22;26753;45.544;9.232;2024-02-23T05:49:02;9.20;99.90
40660;DHT22;26753;45.544;9.232;2024-02-23T05:51:28;12.00;99.90
40660;DHT22;26753;45.544;9.232;2024-02-23T05:53:54;11.50;99.90
40660;DHT22;26753;45.544;9.232;2024-02-23T05:56:20;11.30;99.90
40660;DHT22;26753;45.544;9.232;2024-02-23T05:58:46;11.80;99.90
40660;DHT22;26753;45.544;9.232;2024-02-23T06:01:12;9.30;99.90
40660;DHT22;26753;45.544;9.232;2024-02-23T06:03:37;10.00;99.90
40660;DHT22;26753;45.544;9.232;2024-02-23T06:06:07;11.80;99.90
40660;DHT22;26753;45.544;9.232;2024-02-23T06:08:33;10.80;99.90
40660;DHT22;26753;45.544;9.232;2024-02-23T06:11:00;10.10;99.90
40660;DHT22;26753;45.544;9.232;2024-02-23T06:13:26;11.40;99.90
40660;DHT22;26753;45.544;9.232;2024-02-23T06:15:52;10.60;99.90
40660;DHT22;26753;45.544;9.232;2024-02-23T06:18:18;8.90;99.90
40660;DHT22;26753;45.544;9.232;2024-02-23T06:20:43;10.70;99.90
40660;DHT22;26753;45.544;9.232;2024-02-23T06:23:09;10.60;99.90
40660;DHT22;26753;45.544;9.232;2024-02-23T06:25:35;9.60;99.90
40660;DHT22;26753;45.544;9.232;2024-02-23T06:28:02;11.70;99.90
40660;DHT22;26753;45.544;9.232;2024-02-23T06:30:28;12.10;99.90
40660;DHT22;26753;45.544;9.232;2024-02-23T06:32:54;9.30;99.90
40660;DHT22;26753;45.544;9.232;2024-02-23T06:35:19;10.40;99.90
40660;DHT22;26753;45.544;9.232;2024-02-23T06:50:12;11.60;99.90
40660;DHT22;26753;45.544;9.232;2024-02-23T06:52:38;11.50;99.90
40660;DHT22;26753;45.544;9.232;2024-02-23T06:55:07;11.20;99.90
40660;DHT22;26753;45.544;9.232;2024-02-23T06:57:35;11.60;99.90
40660;DHT22;26753;45.544;9.232;2024-02-23T07:00:02;11.80;99.90
40660;DHT22;26753;45.544;9.232;2024-02-23T07:02:28;10.80;99.90
40660;DHT22;26753;45.544;9.232;2024-02-23T07:04:57;11.10;99.90
40660;DHT22;26753;45.544;9.232;2024-02-23T07:07:24;11.20;99.90
40660;DHT22;26753;45.544;9.232;2024-02-23T07:09:50;11.60;99.90
40660;DHT22;26753;45.544;9.232;2024-02-23T07:12:17;11.40;99.90
40660;DHT22;26753;45.544;9.232;2024-02-23T07:14:43;10.10;99.90
40660;DHT22;26753;45.544;9.232;2024-02-23T07:17:09;11.20;99.90
40660;DHT22;26753;45.544;9.232;2024-02-23T07:19:35;11.10;99.90
40660;DHT22;26753;45.544;9.232;2024-02-23T07:22:07;12.50;99.90
40660;DHT22;26753;45.544;9.232;2024-02-23T07:25:02;11.20;99.90
40660;DHT22;26753;45.544;9.232;2024-02-23T07:27:32;9.90;99.90
40660;DHT22;26753;45.544;9.232;2024-02-23T07:30:01;11.10;99.90
40660;DHT22;26753;45.544;9.232;2024-02-23T07:32:28;10.70;99.90
40660;DHT22;26753;45.544;9.232;2024-02-23T07:34:55;10.90;99.90
40660;DHT22;26753;45.544;9.232;2024-02-23T07:37:21;11.70;99.90
40660;DHT22;26753;45.544;9.232;2024-02-23T07:39:46;11.30;99.90
40660;DHT22;26753;45.544;9.232;2024-02-23T07:42:12;10.80;99.90
40660;DHT22;26753;45.544;9.232;2024-02-23T07:44:40;12.00;99.90
40660;DHT22;26753;45.544;9.232;2024-02-23T07:47:06;10.80;99.90
40660;DHT22;26753;45.544;9.232;2024-02-23T07:49:32;11.30;99.90
40660;DHT22;26753;45.544;9.232;2024-02-23T07:51:57;11.30;99.90
40660;DHT22;26753;45.544;9.232;2024-02-23T07:54:23;12.10;99.90
40660;DHT22;26753;45.544;9.232;2024-02-23T07:56:49;9.20;99.90
40660;DHT22;26753;45.544;9.232;2024-02-23T07:59:15;11.30;99.90
40660;DHT22;26753;45.544;9.232;2024-02-23T08:01:40;12.30;99.90
40660;DHT22;26753;45.544;9.232;2024-02-23T08:04:06;11.40;99.90
40660;DHT22;26753;45.544;9.232;2024-02-23T08:06:32;11.10;99.90
40660;DHT22;26753;45.544;9.232;2024-02-23T08:08:58;11.60;99.90
40660;DHT22;26753;45.544;9.232;2024-02-23T08:11:27;11.60;99.90
40660;DHT22;26753;45.544;9.232;2024-02-23T08:13:53;10.20;99.90
40660;DHT22;26753;45.544;9.232;2024-02-23T08:16:19;10.00;99.90
40660;DHT22;26753;45.544;9.232;2024-02-23T08:18:44;10.60;99.90
40660;DHT22;26753;45.544;9.232;2024-02-23T08:21:10;10.00;99.90
40660;DHT22;26753;45.544;9.232;2024-02-23T08:23:37;10.40;99.90
40660;DHT22;26753;45.544;9.232;2024-02-23T08:26:03;10.80;99.90
40660;DHT22;26753;45.544;9.232;2024-02-23T08:28:41;10.80;99.90
40660;DHT22;26753;45.544;9.232;2024-02-23T08:31:06;11.20;99.90
40660;DHT22;26753;45.544;9.232;2024-02-23T08:33:32;11.10;99.90
40660;DHT22;26753;45.544;9.232;2024-02-23T08:49:18;10.30;99.90
40660;DHT22;26753;45.544;9.232;2024-02-23T08:51:44;11.30;99.90
40660;DHT22;26753;45.544;9.232;2024-02-23T08:54:10;11.00;99.90
40660;DHT22;26753;45.544;9.232;2024-02-23T08:56:38;12.70;99.90
40660;DHT22;26753;45.544;9.232;2024-02-23T08:59:05;9.70;99.90
40660;DHT22;26753;45.544;9.232;2024-02-23T09:01:30;8.70;99.90
40660;DHT22;26753;45.544;9.232;2024-02-23T09:03:56;10.60;99.90
40660;DHT22;26753;45.544;9.232;2024-02-23T09:06:21;11.20;99.90
40660;DHT22;26753;45.544;9.232;2024-02-23T09:08:47;12.30;99.90
40660;DHT22;26753;45.544;9.232;2024-02-23T09:11:13;11.20;99.90
40660;DHT22;26753;45.544;9.232;2024-02-23T09:13:40;12.90;99.90
40660;DHT22;26753;45.544;9.232;2024-02-23T09:16:07;11.10;99.90
40660;DHT22;26753;45.544;9.232;2024-02-23T09:18:34;9.40;99.90
40660;DHT22;26753;45.544;9.232;2024-02-23T09:21:00;11.00;99.90
40660;DHT22;26753;45.544;9.232;2024-02-23T09:23:26;11.10;99.90
40660;DHT22;26753;45.544;9.232;2024-02-23T09:25:51;10.80;99.90
40660;DHT22;26753;45.544;9.232;2024-02-23T09:28:17;10.90;99.90
40660;DHT22;26753;45.544;9.232;2024-02-23T09:30:43;10.80;99.90
40660;DHT22;26753;45.544;9.232;2024-02-23T09:33:08;10.60;99.90
40660;DHT22;26753;45.544;9.232;2024-02-23T09:35:34;10.80;99.90
40660;DHT22;26753;45.544;9.232;2024-02-23T09:37:59;12.70;99.90
40660;DHT22;26753;45.544;9.232;2024-02-23T09:40:25;11.50;99.90
40660;DHT22;26753;45.544;9.232;2024-02-23T09:42:56;12.00;99.90
40660;DHT22;26753;45.544;9.232;2024-02-23T09:47:49;10.20;99.90
40660;DHT22;26753;45.544;9.232;2024-02-23T09:50:15;10.20;99.90
40660;DHT22;26753;45.544;9.232;2024-02-23T09:52:43;10.60;99.90
40660;DHT22;26753;45.544;9.232;2024-02-23T09:57:36;10.40;99.90
40660;DHT22;26753;45.544;9.232;2024-02-23T10:00:02;10.40;99.90
40660;DHT22;26753;45.544;9.232;2024-02-23T10:02:31;9.90;99.90
40660;DHT22;26753;45.544;9.232;2024-02-23T10:04:58;10.30;99.90
40660;DHT22;26753;45.544;9.232;2024-02-23T10:09:51;10.90;99.90
40660;DHT22;26753;45.544;9.232;2024-02-23T10:12:18;9.70;99.90
40660;DHT22;26753;45.544;9.232;2024-02-23T10:14:43;13.20;99.90
40660;DHT22;26753;45.544;9.232;2024-02-23T10:17:09;10.80;99.90
40660;DHT22;26753;45.544;9.232;2024-02-23T10:19:34;10.30;99.90
40660;DHT22;26753;45.544;9.232;2024-02-23T10:24:26;8.10;99.90
40660;DHT22;26753;45.544;9.232;2024-02-23T10:26:52;10.00;99.90
40660;DHT22;26753;45.544;9.232;2024-02-23T10:29:18;12.10;99.90
40660;DHT22;26753;45.544;9.232;2024-02-23T10:31:47;10.00;99.90
40660;DHT22;26753;45.544;9.232;2024-02-23T10:34:18;11.20;99.90
40660;DHT22;26753;45.544;9.232;2024-02-23T10:36:45;9.90;99.90
40660;DHT22;26753;45.544;9.232;2024-02-23T10:39:17;10.70;99.90
40660;DHT22;26753;45.544;9.232;2024-02-23T10:42:07;11.00;99.90
40660;DHT22;26753;45.544;9.232;2024-02-23T10:44:34;12.70;99.90
40660;DHT22;26753;45.544;9.232;2024-02-23T10:47:01;10.90;99.90
40660;DHT22;26753;45.544;9.232;2024-02-23T10:49:28;10.60;99.90
40660;DHT22;26753;45.544;9.232;2024-02-23T10:51:55;11.00;99.90
40660;DHT22;26753;45.544;9.232;2024-02-23T10:54:21;11.30;99.90
40660;DHT22;26753;45.544;9.232;2024-02-23T10:56:49;10.70;99.90
40660;DHT22;26753;45.544;9.232;2024-02-23T10:59:16;11.10;99.90
40660;DHT22;26753;45.544;9.232;2024-02-23T11:01:48;12.70;99.90
40660;DHT22;26753;45.544;9.232;2024-02-23T11:04:16;12.70;99.90
40660;DHT22;26753;45.544;9.232;2024-02-23T11:06:42;12.40;99.90
40660;DHT22;26753;45.544;9.232;2024-02-23T11:09:12;11.50;99.90
40660;DHT22;26753;45.544;9.232;2024-02-23T11:11:38;11.20;99.90
40660;DHT22;26753;45.544;9.232;2024-02-23T11:16:39;10.30;99.90
40660;DHT22;26753;45.544;9.232;2024-02-23T11:19:09;10.20;99.90
40660;DHT22;26753;45.544;9.232;2024-02-23T11:21:37;11.80;99.90
40660;DHT22;26753;45.544;9.232;2024-02-23T11:24:06;12.50;99.90
40660;DHT22;26753;45.544;9.232;2024-02-23T11:26:32;12.50;99.90
40660;DHT22;26753;45.544;9.232;2024-02-23T11:29:09;10.40;99.90
40660;DHT22;26753;45.544;9.232;2024-02-23T11:34:01;11.20;99.90
40660;DHT22;26753;45.544;9.232;2024-02-23T11:36:32;12.20;99.90
40660;DHT22;26753;45.544;9.232;2024-02-23T11:38:59;12.50;99.90
40660;DHT22;26753;45.544;9.232;2024-02-23T11:41:26;12.50;99.90
40660;DHT22;26753;45.544;9.232;2024-02-23T11:43:53;12.10;99.90
40660;DHT22;26753;45.544;9.232;2024-02-23T11:46:21;12.30;99.90
40660;DHT22;26753;45.544;9.232;2024-02-23T11:48:47;13.10;99.90
40660;DHT22;26753;45.544;9.232;2024-02-23T11:51:22;13.80;99.90
40660;DHT22;26753;45.544;9.232;2024-02-23T11:53:49;12.30;99.90
40660;DHT22;26753;45.544;9.232;2024-02-23T11:56:15;13.10;99.90
40660;DHT22;26753;45.544;9.232;2024-02-23T11:58:41;13.70;99.90
40660;DHT22;26753;45.544;9.232;2024-02-23T12:01:07;13.20;99.90
40660;DHT22;26753;45.544;9.232;2024-02-23T12:03:33;11.50;99.90
40660;DHT22;26753;45.544;9.232;2024-02-23T12:06:00;12.50;99.90
40660;DHT22;26753;45.544;9.232;2024-02-23T12:08:27;12.80;99.90
40660;DHT22;26753;45.544;9.232;2024-02-23T12:10:56;13.00;99.90
40660;DHT22;26753;45.544;9.232;2024-02-23T12:13:22;13.10;99.90
40660;DHT22;26753;45.544;9.232;2024-02-23T12:15:48;13.30;99.90
40660;DHT22;26753;45.544;9.232;2024-02-23T12:18:20;15.60;99.90
40660;DHT22;26753;45.544;9.232;2024-02-23T12:20:49;14.40;99.90
40660;DHT22;26753;45.544;9.232;2024-02-23T12:23:14;13.70;99.90
40660;DHT22;26753;45.544;9.232;2024-02-23T12:25:40;12.70;99.90
40660;DHT22;26753;45.544;9.232;2024-02-23T12:28:06;13.00;99.90
40660;DHT22;26753;45.544;9.232;2024-02-23T12:30:32;13.30;99.90
40660;DHT22;26753;45.544;9.232;2024-02-23T12:33:07;13.40;99.90
40660;DHT22;26753;45.544;9.232;2024-02-23T12:35:34;12.90;99.90
40660;DHT22;26753;45.544;9.232;2024-02-23T12:38:01;13.00;99.90
40660;DHT22;26753;45.544;9.232;2024-02-23T12:40:26;12.90;99.90
40660;DHT22;26753;45.544;9.232;2024-02-23T12:42:52;13.20;99.90
40660;DHT22;26753;45.544;9.232;2024-02-23T12:45:18;13.90;99.90
40660;DHT22;26753;45.544;9.232;2024-02-23T12:47:44;13.60;99.90
40660;DHT22;26753;45.544;9.232;2024-02-23T12:50:09;13.50;99.90
40660;DHT22;26753;45.544;9.232;2024-02-23T12:52:36;13.60;99.90
40660;DHT22;26753;45.544;9.232;2024-02-23T12:55:04;15.20;99.90
40660;DHT22;26753;45.544;9.232;2024-02-23T12:57:29;14.50;99.90
40660;DHT22;26753;45.544;9.232;2024-02-23T12:59:55;14.60;99.90
40660;DHT22;26753;45.544;9.232;2024-02-23T13:02:21;14.90;99.90
40660;DHT22;26753;45.544;9.232;2024-02-23T13:04:47;14.00;99.90
40660;DHT22;26753;45.544;9.232;2024-02-23T13:07:16;14.00;99.90
40660;DHT22;26753;45.544;9.232;2024-02-23T13:09:42;14.00;99.90
40660;DHT22;26753;45.544;9.232;2024-02-23T13:12:08;14.80;99.90
40660;DHT22;26753;45.544;9.232;2024-02-23T13:14:34;14.50;99.90
40660;DHT22;26753;45.544;9.232;2024-02-23T13:17:00;13.70;99.90
40660;DHT22;26753;45.544;9.232;2024-02-23T13:19:25;13.40;99.90
40660;DHT22;26753;45.544;9.232;2024-02-23T13:21:52;15.10;99.90
40660;DHT22;26753;45.544;9.232;2024-02-23T13:24:18;13.40;99.90
40660;DHT22;26753;45.544;9.232;2024-02-23T13:26:44;13.40;99.90
40660;DHT22;26753;45.544;9.232;2024-02-23T13:29:09;13.10;99.90
40660;DHT22;26753;45.544;9.232;2024-02-23T13:31:35;14.40;99.90
40660;DHT22;26753;45.544;9.232;2024-02-23T13:34:01;13.10;99.90
40660;DHT22;26753;45.544;9.232;2024-02-23T13:36:26;13.80;99.90
40660;DHT22;26753;45.544;9.232;2024-02-23T13:38:52;14.10;99.90
40660;DHT22;26753;45.544;9.232;2024-02-23T13:41:18;14.00;99.90
40660;DHT22;26753;45.544;9.232;2024-02-23T13:43:43;13.50;99.90
40660;DHT22;26753;45.544;9.232;2024-02-23T13:46:09;13.90;99.90
40660;DHT22;26753;45.544;9.232;2024-02-23T13:48:36;13.40;99.90
40660;DHT22;26753;45.544;9.232;2024-02-23T13:51:02;13.70;99.90
40660;DHT22;26753;45.544;9.232;2024-02-23T13:53:30;10.90;99.90
40660;DHT22;26753;45.544;9.232;2024-02-23T13:55:56;14.00;99.90
40660;DHT22;26753;45.544;9.232;2024-02-23T13:58:22;12.80;99.90
40660;DHT22;26753;45.544;9.232;2024-02-23T14:00:48;13.30;99.90
40660;DHT22;26753;45.544;9.232;2024-02-23T14:03:16;13.40;99.90
40660;DHT22;26753;45.544;9.232;2024-02-23T14:05:46;13.40;99.90
40660;DHT22;26753;45.544;9.232;2024-02-23T14:08:12;13.20;99.90
40660;DHT22;26753;45.544;9.232;2024-02-23T14:10:38;12.90;99.90
40660;DHT22;26753;45.544;9.232;2024-02-23T14:13:05;13.30;99.90
40660;DHT22;26753;45.544;9.232;2024-02-23T14:15:31;12.60;99.90
40660;DHT22;26753;45.544;9.232;2024-02-23T14:17:57;13.20;99.90
40660;DHT22;26753;45.544;9.232;2024-02-23T14:20:23;13.10;99.90
40660;DHT22;26753;45.544;9.232;2024-02-23T14:22:49;13.10;99.90
40660;DHT22;26753;45.544;9.232;2024-02-23T14:25:15;13.20;99.90
40660;DHT22;26753;45.544;9.232;2024-02-23T14:27:41;13.50;99.90
40660;DHT22;26753;45.544;9.232;2024-02-23T14:30:07;14.90;99.90
40660;DHT22;26753;45.544;9.232;2024-02-23T14:32:33;13.20;99.90
40660;DHT22;26753;45.544;9.232;2024-02-23T14:35:02;12.40;99.90
40660;DHT22;26753;45.544;9.232;2024-02-23T14:37:28;13.20;99.90
40660;DHT22;26753;45.544;9.232;2024-02-23T14:39:54;12.80;99.90
40660;DHT22;26753;45.544;9.232;2024-02-23T14:42:20;12.60;99.90
40660;DHT22;26753;45.544;9.232;2024-02-23T14:44:45;12.30;99.90
40660;DHT22;26753;45.544;9.232;2024-02-23T14:47:11;12.40;99.90
40660;DHT22;26753;45.544;9.232;2024-02-23T14:49:38;12.90;99.90
40660;DHT22;26753;45.544;9.232;2024-02-23T14:52:04;12.70;99.90
40660;DHT22;26753;45.544;9.232;2024-02-23T14:54:30;11.60;99.90
40660;DHT22;26753;45.544;9.232;2024-02-23T14:56:55;12.00;99.90
40660;DHT22;26753;45.544;9.232;2024-02-23T14:59:21;12.10;99.90
40660;DHT22;26753;45.544;9.232;2024-02-23T15:01:47;12.50;99.90
40660;DHT22;26753;45.544;9.232;2024-02-23T15:04:12;12.70;99.90
40660;DHT22;26753;45.544;9.232;2024-02-23T15:06:38;12.80;99.90
40660;DHT22;26753;45.544;9.232;2024-02-23T15:09:04;12.90;99.90
40660;DHT22;26753;45.544;9.232;2024-02-23T15:11:30;13.10;99.90
40660;DHT22;26753;45.544;9.232;2024-02-23T15:13:56;12.60;99.90
40660;DHT22;26753;45.544;9.232;2024-02-23T15:16:27;13.10;99.90
40660;DHT22;26753;45.544;9.232;2024-02-23T15:18:53;13.20;99.90
40660;DHT22;26753;45.544;9.232;2024-02-23T15:21:19;13.60;99.90
40660;DHT22;26753;45.544;9.232;2024-02-23T15:23:45;12.00;99.90
40660;DHT22;26753;45.544;9.232;2024-02-23T15:26:11;13.60;99.90
40660;DHT22;26753;45.544;9.232;2024-02-23T15:28:37;13.60;99.90
40660;DHT22;26753;45.544;9.232;2024-02-23T15:31:04;14.00;99.90
40660;DHT22;26753;45.544;9.232;2024-02-23T15:33:30;14.70;99.90
40660;DHT22;26753;45.544;9.232;2024-02-23T15:35:55;13.90;99.90
40660;DHT22;26753;45.544;9.232;2024-02-23T15:38:21;14.10;99.90
40660;DHT22;26753;45.544;9.232;2024-02-23T15:40:47;14.00;99.90
40660;DHT22;26753;45.544;9.232;2024-02-23T15:43:16;15.40;99.90
40660;DHT22;26753;45.544;9.232;2024-02-23T15:45:42;14.40;99.90
40660;DHT22;26753;45.544;9.232;2024-02-23T15:48:09;15.10;99.90
40660;DHT22;26753;45.544;9.232;2024-02-23T15:50:38;13.90;99.90
40660;DHT22;26753;45.544;9.232;2024-02-23T15:53:04;14.00;99.90
40660;DHT22;26753;45.544;9.232;2024-02-23T15:55:30;14.10;99.90
40660;DHT22;26753;45.544;9.232;2024-02-23T15:57:56;13.60;99.90
40660;DHT22;26753;45.544;9.232;2024-02-23T16:00:22;13.40;99.90
40660;DHT22;26753;45.544;9.232;2024-02-23T16:02:48;13.80;99.90
40660;DHT22;26753;45.544;9.232;2024-02-23T16:05:13;13.10;99.90
40660;DHT22;26753;45.544;9.232;2024-02-23T16:07:39;14.50;99.90
40660;DHT22;26753;45.544;9.232;2024-02-23T16:12:32;12.80;99.90
40660;DHT22;26753;45.544;9.232;2024-02-23T16:14:58;14.30;99.90